Time;durP1;ratioP1;P1;durP2;ratioP2;P2;SDS_P1;SDS_P2;PMS_P1;PMS_P2;Temp;Humidity;BMP_temperature;BMP_pressure;BME280_temperature;BME280_humidity;BME280_pressure;Samples;Min_cycle;Max_cycle;Signal;HPM_P1;HPM_P2
2022/03/28 00:02:13;;;;;;;21.33;19.23;;;;;;;;;;12253526;29;20382;-76
2022/03/28 00:08:15;;;;;;;25.48;22.90;;;;;;;;;;12236764;29;20051;-76
2022/03/28 00:14:17;;;;;;;22.80;20.55;;;;;;;;;;12237954;29;20102;-76
2022/03/28 00:20:18;;;;;;;24.30;21.45;;;;;;;;;;12263433;29;20040;-75
2022/03/28 00:26:20;;;;;;;27.15;24.60;;;;;;;;;;12262341;29;20044;-76
2022/03/28 00:32:22;;;;;;;15.75;14.27;;;;;;;;;;12261191;29;20043;-76
2022/03/28 00:38:24;;;;;;;26.83;24.27;;;;;;;;;;12262763;29;20497;-75
2022/03/28 00:44:25;;;;;;;32.08;29.02;;;;;;;;;;12261878;29;20047;-75
2022/03/28 00:50:28;;;;;;;28.00;25.27;;;;;;;;;;12273718;29;20504;-75
2022/03/28 00:56:30;;;;;;;23.33;20.87;;;;;;;;;;12244365;29;20102;-76
2022/03/28 01:02:31;;;;;;;16.77;15.25;;;;;;;;;;12260899;29;20274;-75
2022/03/28 01:08:35;;;;;;;16.48;14.88;;;;;;;;;;12259388;29;20058;-75
2022/03/28 01:14:37;;;;;;;14.50;13.30;;;;;;;;;;12243346;29;20424;-75
2022/03/28 01:20:40;;;;;;;13.40;12.30;;;;;;;;;;12260166;29;20028;-75
2022/03/28 01:26:43;;;;;;;13.35;12.15;;;;;;;;;;12259684;29;20048;-75
2022/03/28 01:32:46;;;;;;;13.18;11.98;;;;;;;;;;12253781;29;20386;-75
2022/03/28 01:38:48;;;;;;;13.23;12.02;;;;;;;;;;12259851;29;20055;-75
2022/03/28 01:44:50;;;;;;;11.05;10.13;;;;;;;;;;12242051;29;20048;-75
2022/03/28 01:50:52;;;;;;;12.20;11.10;;;;;;;;;;12241733;29;20434;-75
2022/03/28 01:56:54;;;;;;;12.18;11.07;;;;;;;;;;12258433;29;20037;-75
2022/03/28 02:02:56;;;;;;;10.75;9.85;;;;;;;;;;12258061;29;20393;-76
2022/03/28 02:08:58;;;;;;;7.80;7.20;;;;;;;;;;12257831;29;20040;-75
2022/03/28 02:15:00;;;;;;;10.60;9.70;;;;;;;;;;12240987;29;20036;-75
2022/03/28 02:21:02;;;;;;;9.37;8.57;;;;;;;;;;12251384;29;20039;-76
2022/03/28 02:27:04;;;;;;;10.40;9.52;;;;;;;;;;12240056;29;20047;-75
2022/03/28 02:33:06;;;;;;;7.13;6.53;;;;;;;;;;12239645;29;20043;-75
2022/03/28 02:39:08;;;;;;;7.20;6.60;;;;;;;;;;12261517;29;20016;-75
2022/03/28 02:45:10;;;;;;;8.07;7.32;;;;;;;;;;12263551;29;20307;-75
2022/03/28 02:51:12;;;;;;;9.07;7.20;;;;;;;;;;12239125;29;20042;-75
2022/03/28 02:57:14;;;;;;;8.23;7.43;;;;;;;;;;12255762;29;20055;-75
2022/03/28 03:03:15;;;;;;;3.70;3.40;;;;;;;;;;12255191;29;20235;-77
2022/03/28 03:09:17;;;;;;;6.85;6.15;;;;;;;;;;12255094;29;20040;-77
2022/03/28 03:15:19;;;;;;;7.50;6.75;;;;;;;;;;12255156;29;20402;-78
2022/03/28 03:21:21;;;;;;;7.82;7.07;;;;;;;;;;12254701;29;20031;-78
2022/03/28 03:27:23;;;;;;;6.90;6.32;;;;;;;;;;12263645;28;20059;-77
2022/03/28 03:33:25;;;;;;;8.13;7.47;;;;;;;;;;12251523;29;20052;-78
2022/03/28 03:39:27;;;;;;;9.88;8.88;;;;;;;;;;12251645;29;20633;-77
2022/03/28 03:45:28;;;;;;;5.53;5.03;;;;;;;;;;12251335;29;20043;-78
2022/03/28 03:51:30;;;;;;;10.52;9.50;;;;;;;;;;12250524;29;20036;-78
2022/03/28 03:57:32;;;;;;;9.98;9.07;;;;;;;;;;12251155;29;20023;-77
2022/03/28 04:03:34;;;;;;;8.00;7.25;;;;;;;;;;12251684;29;20043;-77
2022/03/28 04:09:36;;;;;;;8.70;7.90;;;;;;;;;;12265654;29;20505;-77
2022/03/28 04:15:38;;;;;;;11.43;8.30;;;;;;;;;;12236218;29;20036;-77
2022/03/28 04:21:39;;;;;;;8.60;7.40;;;;;;;;;;12236255;29;20040;-77
2022/03/28 04:27:41;;;;;;;13.02;11.13;;;;;;;;;;12252978;29;20063;-77
2022/03/28 04:33:43;;;;;;;10.55;8.00;;;;;;;;;;12235616;29;20051;-77
2022/03/28 04:39:45;;;;;;;11.85;8.45;;;;;;;;;;12235570;29;20035;-78
2022/03/28 04:45:47;;;;;;;10.73;8.52;;;;;;;;;;12235731;29;20044;-77
2022/03/28 04:51:48;;;;;;;9.05;7.40;;;;;;;;;;12248439;29;20564;-76
2022/03/28 04:57:50;;;;;;;9.70;8.77;;;;;;;;;;12247966;29;20277;-76
2022/03/28 05:03:52;;;;;;;9.45;8.40;;;;;;;;;;12240718;29;20035;-77
2022/03/28 05:09:54;;;;;;;9.25;8.45;;;;;;;;;;12242205;29;20035;-77
2022/03/28 05:15:57;;;;;;;20.70;10.38;;;;;;;;;;12257951;29;20508;-77
2022/03/28 05:21:59;;;;;;;;;;;;;;;;;;12240841;29;20525;-77
2022/03/28 05:28:00;;;;;;;12.20;9.43;;;;;;;;;;12256752;29;19922;-77
2022/03/28 05:34:02;;;;;;;9.55;8.65;;;;;;;;;;12267423;28;20035;-78
2022/03/28 05:40:05;;;;;;;7.82;7.07;;;;;;;;;;12264687;28;20519;-80
2022/03/28 05:46:06;;;;;;;12.35;11.30;;;;;;;;;;12313509;28;20070;-79
2022/03/28 05:52:08;;;;;;;12.23;10.95;;;;;;;;;;12251354;28;20039;-79
2022/03/28 05:58:11;;;;;;;10.73;9.68;;;;;;;;;;12258462;28;20030;-81
2022/03/28 06:04:13;;;;;;;11.20;10.10;;;;;;;;;;12262657;28;20062;-81
2022/03/28 06:10:16;;;;;;;12.70;10.13;;;;;;;;;;12279830;28;20286;-81
2022/03/28 06:16:18;;;;;;;11.70;10.32;;;;;;;;;;12274684;28;20034;-81
2022/03/28 06:22:20;;;;;;;16.13;12.23;;;;;;;;;;12274164;28;20481;-78
2022/03/28 06:28:22;;;;;;;12.03;10.83;;;;;;;;;;12259144;28;20627;-79
2022/03/28 06:34:24;;;;;;;11.15;10.00;;;;;;;;;;12256803;28;20048;-79
2022/03/28 06:40:27;;;;;;;13.93;10.05;;;;;;;;;;12289309;28;20365;-78
2022/03/28 06:46:29;;;;;;;7.60;6.88;;;;;;;;;;12260938;28;20401;-78
2022/03/28 06:52:30;;;;;;;10.85;9.95;;;;;;;;;;12278480;28;20376;-78
2022/03/28 06:58:32;;;;;;;10.00;9.10;;;;;;;;;;12260340;29;20019;-78
2022/03/28 07:04:34;;;;;;;9.40;8.63;;;;;;;;;;12268536;28;20058;-78
2022/03/28 07:10:36;;;;;;;10.88;9.88;;;;;;;;;;12278241;28;20028;-79
2022/03/28 07:16:37;;;;;;;9.77;9.00;;;;;;;;;;12250463;28;20047;-78
2022/03/28 07:22:40;;;;;;;12.65;11.65;;;;;;;;;;12265580;28;20500;-79
2022/03/28 07:28:41;;;;;;;12.00;11.10;;;;;;;;;;12265140;29;20035;-78
2022/03/28 07:34:43;;;;;;;12.88;11.77;;;;;;;;;;12259642;29;20429;-78
2022/03/28 07:40:45;;;;;;;13.05;11.80;;;;;;;;;;12275395;28;20034;-78
2022/03/28 07:46:47;;;;;;;14.55;13.27;;;;;;;;;;12265756;28;20051;-78
2022/03/28 07:52:52;;;;;;;14.30;13.00;;;;;;;;;;12289037;29;20557;-77
2022/03/28 07:58:54;;;;;;;12.13;11.10;;;;;;;;;;12287429;28;20035;-77
2022/03/28 08:04:55;;;;;;;16.10;14.60;;;;;;;;;;12268357;29;20051;-78
2022/03/28 08:10:57;;;;;;;12.32;11.20;;;;;;;;;;12273665;28;20031;-77
2022/03/28 08:16:59;;;;;;;12.05;10.77;;;;;;;;;;12265901;29;20028;-77
2022/03/28 08:23:02;;;;;;;10.27;9.40;;;;;;;;;;12279840;28;20512;-77
2022/03/28 08:29:04;;;;;;;14.65;13.15;;;;;;;;;;12277002;28;20051;-81
2022/03/28 08:35:06;;;;;;;15.65;13.55;;;;;;;;;;12271178;28;20055;-80
2022/03/28 08:41:12;;;;;;;15.60;14.00;;;;;;;;;;12283089;28;20023;-79
2022/03/28 08:47:17;;;;;;;24.35;19.75;;;;;;;;;;12275653;28;20047;-80
2022/03/28 08:53:19;;;;;;;13.65;12.40;;;;;;;;;;12263992;28;20031;-80
2022/03/28 08:59:20;;;;;;;11.68;10.45;;;;;;;;;;12274189;28;20370;-79
2022/03/28 09:05:35;;;;;;;14.00;12.65;;;;;;;;;;12296454;28;20054;-79
2022/03/28 09:11:37;;;;;;;18.33;16.60;;;;;;;;;;12283245;28;20043;-81
2022/03/28 09:17:43;;;;;;;12.90;11.20;;;;;;;;;;12282187;28;20066;-80
2022/03/28 09:23:46;;;;;;;18.40;16.50;;;;;;;;;;12271866;28;20051;-80
2022/03/28 09:29:58;;;;;;;25.75;23.15;;;;;;;;;;12293297;28;20043;-80
2022/03/28 09:36:00;;;;;;;20.88;18.77;;;;;;;;;;12259788;29;20058;-80
2022/03/28 09:42:03;;;;;;;20.08;18.08;;;;;;;;;;12264326;28;20414;-79
2022/03/28 09:48:07;;;;;;;17.23;15.35;;;;;;;;;;12250697;29;20044;-80
2022/03/28 09:54:19;;;;;;;16.90;15.10;;;;;;;;;;12261636;29;20031;-79
2022/03/28 10:00:21;;;;;;;24.38;21.88;;;;;;;;;;12271974;28;20020;-80
2022/03/28 10:06:23;;;;;;;20.20;18.03;;;;;;;;;;12268714;29;20477;-81
2022/03/28 10:12:25;;;;;;;26.10;22.57;;;;;;;;;;12260040;28;20484;-80
2022/03/28 10:18:34;;;;;;;16.50;13.90;;;;;;;;;;12243079;29;20424;-81
2022/03/28 10:24:36;;;;;;;20.98;18.33;;;;;;;;;;12256580;28;20055;-81
2022/03/28 10:30:38;;;;;;;19.35;17.27;;;;;;;;;;12270302;28;20023;-81
2022/03/28 10:36:41;;;;;;;14.57;13.07;;;;;;;;;;12270752;28;20058;-80
2022/03/28 10:42:47;;;;;;;20.45;17.25;;;;;;;;;;12278175;28;20042;-81
2022/03/28 10:48:55;;;;;;;21.00;18.92;;;;;;;;;;12264098;28;20492;-80
2022/03/28 10:54:56;;;;;;;16.13;14.30;;;;;;;;;;12269091;29;20031;-80
2022/03/28 11:01:13;;;;;;;20.97;18.70;;;;;;;;;;12269555;28;20031;-81
2022/03/28 11:07:21;;;;;;;23.48;18.85;;;;;;;;;;12266842;28;20054;-79
2022/03/28 11:13:23;;;;;;;34.33;24.67;;;;;;;;;;12265158;28;20031;-78
2022/03/28 11:19:35;;;;;;;36.15;25.15;;;;;;;;;;12276939;28;21317;-78
2022/03/28 11:25:44;;;;;;;34.50;25.83;;;;;;;;;;12271075;29;20046;-77
2022/03/28 11:31:46;;;;;;;27.83;21.27;;;;;;;;;;12251207;29;20279;-76
2022/03/28 11:37:48;;;;;;;23.33;18.10;;;;;;;;;;12201005;29;20149;-76
2022/03/28 11:43:51;;;;;;;27.92;21.48;;;;;;;;;;12201780;29;20040;-76
2022/03/28 11:49:54;;;;;;;25.52;19.92;;;;;;;;;;12202213;29;20402;-76
2022/03/28 11:55:56;;;;;;;21.13;18.23;;;;;;;;;;12202264;29;20474;-76
2022/03/28 12:02:01;;;;;;;21.15;18.77;;;;;;;;;;12203532;29;20394;-75
2022/03/28 12:08:15;;;;;;;18.73;16.75;;;;;;;;;;12204792;29;20052;-76
2022/03/28 12:14:18;;;;;;;20.42;18.23;;;;;;;;;;12215564;29;20506;-76
2022/03/28 12:20:24;;;;;;;23.40;21.02;;;;;;;;;;12215993;29;20036;-76
2022/03/28 12:26:25;;;;;;;18.35;16.45;;;;;;;;;;12216390;29;20048;-75
2022/03/28 12:32:27;;;;;;;15.87;14.17;;;;;;;;;;12214182;29;20036;-75
2022/03/28 12:38:30;;;;;;;19.23;17.23;;;;;;;;;;12217945;29;20311;-77
2022/03/28 12:44:34;;;;;;;15.70;14.13;;;;;;;;;;12213095;29;20036;-78
2022/03/28 12:50:36;;;;;;;15.38;13.88;;;;;;;;;;12215559;29;20036;-78
2022/03/28 12:56:42;;;;;;;19.15;16.00;;;;;;;;;;12212941;29;20032;-78
2022/03/28 13:02:52;;;;;;;20.88;17.73;;;;;;;;;;12212813;29;20055;-78
2022/03/28 13:09:03;;;;;;;23.63;21.15;;;;;;;;;;12213597;29;20413;-76
2022/03/28 13:15:06;;;;;;;17.40;15.60;;;;;;;;;;12212593;29;20047;-78
2022/03/28 13:21:07;;;;;;;;;;;;;;;;;;12227171;29;20047;-78
2022/03/28 13:33:40;;;;;;;18.95;16.90;;;;;;;;;;12216306;29;20059;-77
2022/03/28 13:39:59;;;;;;;19.17;16.58;;;;;;;;;;12244706;29;20032;-78
2022/03/28 13:46:03;;;;;;;25.08;22.38;;;;;;;;;;12225829;29;20059;-77
2022/03/28 13:52:08;;;;;;;22.25;19.85;;;;;;;;;;12243821;29;20032;-78
2022/03/28 13:58:10;;;;;;;22.00;19.70;;;;;;;;;;12258686;29;20035;-79
2022/03/28 14:04:16;;;;;;;17.63;14.65;;;;;;;;;;12262623;29;20043;-77
2022/03/28 14:10:21;;;;;;;21.45;19.20;;;;;;;;;;12258841;29;20048;-77
2022/03/28 14:16:29;;;;;;;21.15;18.90;;;;;;;;;;12257868;29;20039;-77
2022/03/28 14:22:41;;;;;;;19.10;17.05;;;;;;;;;;12240477;29;20043;-77
2022/03/28 14:28:50;;;;;;;23.08;18.75;;;;;;;;;;12257320;29;20074;-77
2022/03/28 14:34:53;;;;;;;22.55;20.20;;;;;;;;;;12270664;29;20070;-77
2022/03/28 14:40:56;;;;;;;25.90;20.75;;;;;;;;;;12256619;29;20040;-77
2022/03/28 14:47:01;;;;;;;18.65;15.60;;;;;;;;;;12239478;29;20035;-79
2022/03/28 14:53:07;;;;;;;19.80;17.45;;;;;;;;;;12239418;29;20040;-78
2022/03/28 14:59:09;;;;;;;17.73;12.63;;;;;;;;;;12256553;29;20377;-77
2022/03/28 15:05:11;;;;;;;23.83;19.97;;;;;;;;;;12255790;29;20051;-78
2022/03/28 15:11:13;;;;;;;;;;;;;;;;;;12255404;29;20287;-78
2022/03/28 15:17:15;;;;;;;21.65;17.25;;;;;;;;;;12264864;29;19917;-78
2022/03/28 15:23:17;;;;;;;24.02;19.20;;;;;;;;;;12238535;29;20504;-76
2022/03/28 15:29:19;;;;;;;27.23;22.00;;;;;;;;;;12254476;29;20047;-77
2022/03/28 15:35:20;;;;;;;25.20;19.77;;;;;;;;;;12237657;29;20075;-77
2022/03/28 15:41:24;;;;;;;21.45;17.98;;;;;;;;;;12237489;29;20059;-77
2022/03/28 15:47:26;;;;;;;21.58;18.35;;;;;;;;;;12253454;29;20401;-76
2022/03/28 15:53:41;;;;;;;19.05;15.98;;;;;;;;;;12253509;29;20040;-77
2022/03/28 15:59:51;;;;;;;16.15;14.43;;;;;;;;;;12268715;29;20513;-78
2022/03/28 16:05:53;;;;;;;17.95;14.25;;;;;;;;;;12253827;29;20052;-78
2022/03/28 16:11:55;;;;;;;19.70;14.60;;;;;;;;;;12236142;29;20048;-77
2022/03/28 16:17:57;;;;;;;15.90;13.25;;;;;;;;;;12236095;29;20035;-77
2022/03/28 16:23:59;;;;;;;12.37;9.80;;;;;;;;;;12235986;29;20044;-77
2022/03/28 16:30:01;;;;;;;15.95;13.32;;;;;;;;;;12252495;29;20044;-77
2022/03/28 16:36:03;;;;;;;18.20;14.83;;;;;;;;;;12235532;29;20056;-78
2022/03/28 16:42:08;;;;;;;17.75;14.25;;;;;;;;;;12252466;29;20035;-79
2022/03/28 16:48:12;;;;;;;16.65;12.32;;;;;;;;;;12264390;29;20047;-77
2022/03/28 16:54:17;;;;;;;16.42;13.38;;;;;;;;;;12252383;29;20032;-77
2022/03/28 17:00:24;;;;;;;16.98;13.15;;;;;;;;;;12242864;29;20395;-78
2022/03/28 17:06:28;;;;;;;15.13;13.02;;;;;;;;;;12244318;29;20048;-77
2022/03/28 17:12:30;;;;;;;17.17;15.23;;;;;;;;;;12243403;29;20304;-77
2022/03/28 17:18:45;;;;;;;;;;;;;;;;;;;;;
2022/03/28 17:24:47;;;;;;;15.93;13.82;;;;;;;;;;12259977;29;20493;-79
2022/03/28 17:30:53;;;;;;;15.95;13.35;;;;;;;;;;12259969;29;20058;-77
2022/03/28 17:36:55;;;;;;;19.05;17.05;;;;;;;;;;12259333;29;20048;-78
2022/03/28 17:43:02;;;;;;;16.65;14.55;;;;;;;;;;12242010;29;20046;-77
2022/03/28 17:49:04;;;;;;;10.75;9.68;;;;;;;;;;12259009;29;20048;-77
2022/03/28 17:55:06;;;;;;;12.88;11.43;;;;;;;;;;12241612;29;20035;-78
2022/03/28 18:01:10;;;;;;;18.23;14.23;;;;;;;;;;12258669;29;20036;-78
2022/03/28 18:07:12;;;;;;;11.38;9.98;;;;;;;;;;12259071;29;20051;-78
2022/03/28 18:13:14;;;;;;;21.95;19.30;;;;;;;;;;12257686;29;20027;-78
2022/03/28 18:19:16;;;;;;;19.13;16.83;;;;;;;;;;12257459;29;20044;-79
2022/03/28 18:25:20;;;;;;;18.33;16.40;;;;;;;;;;12248431;29;20044;-80
2022/03/28 18:31:22;;;;;;;21.70;17.67;;;;;;;;;;12239869;29;20027;-81
2022/03/28 18:37:24;;;;;;;18.87;16.80;;;;;;;;;;12239327;29;20219;-81
2022/03/28 18:43:26;;;;;;;14.87;13.40;;;;;;;;;;12239544;29;20348;-83
2022/03/28 18:49:28;;;;;;;14.03;12.43;;;;;;;;;;12257463;29;20413;-79
2022/03/28 18:55:33;;;;;;;16.75;15.05;;;;;;;;;;12256075;29;20043;-80
2022/03/28 19:01:34;;;;;;;20.50;18.15;;;;;;;;;;12255464;29;20050;-83
2022/03/28 19:07:46;;;;;;;18.35;16.35;;;;;;;;;;12254041;29;20047;-81
2022/03/28 19:13:50;;;;;;;16.85;15.00;;;;;;;;;;12251277;29;20040;-82
2022/03/28 19:19:52;;;;;;;15.30;13.33;;;;;;;;;;12268698;29;20040;-83
2022/03/28 19:25:54;;;;;;;16.50;14.35;;;;;;;;;;12251726;29;20047;-82
2022/03/28 19:31:56;;;;;;;17.15;15.25;;;;;;;;;;12234105;29;20512;-81
2022/03/28 19:37:57;;;;;;;16.10;14.18;;;;;;;;;;12252179;29;20071;-83
2022/03/28 19:43:59;;;;;;;11.68;10.48;;;;;;;;;;12233933;29;20405;-84
2022/03/28 19:50:01;;;;;;;11.95;10.70;;;;;;;;;;12233359;29;20048;-82
2022/03/28 19:56:03;;;;;;;13.67;11.53;;;;;;;;;;12232889;29;20031;-81
2022/03/28 20:02:07;;;;;;;12.38;11.07;;;;;;;;;;12236159;29;20501;-80
2022/03/28 20:08:09;;;;;;;10.82;9.73;;;;;;;;;;12260466;29;20058;-79
2022/03/28 20:14:14;;;;;;;11.60;10.40;;;;;;;;;;12232951;29;20531;-81
2022/03/28 20:20:15;;;;;;;14.90;13.05;;;;;;;;;;12232760;29;20048;-80
2022/03/28 20:26:17;;;;;;;11.68;10.48;;;;;;;;;;12249516;29;20082;-83
2022/03/28 20:32:22;;;;;;;9.93;8.48;;;;;;;;;;12252466;28;20501;-82
2022/03/28 20:38:32;;;;;;;11.00;9.85;;;;;;;;;;12242741;29;20535;-82
2022/03/28 20:44:41;;;;;;;12.25;11.05;;;;;;;;;;12271865;29;20032;-81
2022/03/28 20:50:43;;;;;;;10.10;8.88;;;;;;;;;;12259015;29;20050;-81
2022/03/28 20:56:45;;;;;;;14.75;11.43;;;;;;;;;;12259305;29;20717;-80
2022/03/28 21:02:46;;;;;;;11.32;10.25;;;;;;;;;;12240679;28;20032;-80
2022/03/28 21:08:48;;;;;;;15.95;13.77;;;;;;;;;;12240788;29;20055;-80
2022/03/28 21:14:50;;;;;;;12.27;11.05;;;;;;;;;;12240109;29;20273;-80
2022/03/28 21:20:58;;;;;;;12.02;10.15;;;;;;;;;;12240034;29;20477;-80
2022/03/28 21:27:03;;;;;;;14.40;12.90;;;;;;;;;;12256888;29;20044;-80
2022/03/28 21:33:08;;;;;;;12.13;9.90;;;;;;;;;;12256344;29;20385;-80
2022/03/28 21:39:10;;;;;;;14.65;13.25;;;;;;;;;;12239264;29;20169;-79
2022/03/28 21:45:12;;;;;;;15.40;13.27;;;;;;;;;;12251808;29;20046;-79
2022/03/28 21:51:15;;;;;;;15.30;13.70;;;;;;;;;;12239738;29;20399;-79
2022/03/28 21:57:16;;;;;;;13.70;12.25;;;;;;;;;;12238752;29;20112;-80
2022/03/28 22:03:19;;;;;;;13.13;11.32;;;;;;;;;;12238333;29;20044;-79
2022/03/28 22:09:21;;;;;;;12.40;11.10;;;;;;;;;;12257986;29;20143;-79
2022/03/28 22:15:22;;;;;;;12.23;11.02;;;;;;;;;;12254752;29;20788;-80
2022/03/28 22:21:24;;;;;;;12.75;10.65;;;;;;;;;;12257527;29;20040;-80
2022/03/28 22:27:26;;;;;;;14.43;12.82;;;;;;;;;;12270630;29;20048;-79
2022/03/28 22:33:28;;;;;;;15.02;13.57;;;;;;;;;;12240432;29;20137;-80
2022/03/28 22:39:29;;;;;;;19.65;17.65;;;;;;;;;;12240141;29;20398;-79
2022/03/28 22:45:31;;;;;;;15.65;13.88;;;;;;;;;;12239389;29;20508;-79
2022/03/28 22:51:33;;;;;;;19.23;17.25;;;;;;;;;;12239383;29;20595;-80
2022/03/28 22:57:35;;;;;;;17.67;15.93;;;;;;;;;;12238597;29;20047;-80
2022/03/28 23:03:37;;;;;;;16.97;15.27;;;;;;;;;;12238872;29;20042;-80
2022/03/28 23:09:39;;;;;;;13.57;12.25;;;;;;;;;;12255313;29;20055;-80
2022/03/28 23:15:41;;;;;;;21.05;18.85;;;;;;;;;;12238560;29;20039;-79
2022/03/28 23:21:42;;;;;;;16.92;15.05;;;;;;;;;;12238089;29;20039;-79
2022/03/28 23:27:45;;;;;;;22.83;20.40;;;;;;;;;;12255155;29;20055;-79
2022/03/28 23:33:47;;;;;;;19.87;17.77;;;;;;;;;;12253550;29;20054;-80
2022/03/28 23:39:48;;;;;;;24.55;20.02;;;;;;;;;;12234202;29;20294;-80
2022/03/28 23:45:50;;;;;;;19.20;17.20;;;;;;;;;;12250855;29;20501;-80
2022/03/28 23:51:52;;;;;;;15.35;13.85;;;;;;;;;;12260290;29;20393;-79
2022/03/28 23:57:53;;;;;;;16.55;14.85;;;;;;;;;;12250779;29;20041;-79
